createdAt,value
2022-08-20T00:00:28.933Z,13.97
2022-08-20T00:02:57.682Z,13.83
2022-08-20T00:05:27.121Z,13.03
2022-08-20T00:07:54.066Z,14.33
2022-08-20T00:10:22.746Z,13.60
2022-08-20T00:12:50.478Z,13.90
2022-08-20T00:15:21.596Z,14.10
2022-08-20T00:17:50.593Z,14.50
2022-08-20T00:20:18.834Z,14.40
2022-08-20T00:22:46.105Z,13.43
2022-08-20T00:25:13.446Z,14.57
2022-08-20T00:27:40.304Z,13.77
2022-08-20T00:30:09.895Z,15.13
2022-08-20T00:32:57.588Z,14.30
2022-08-20T00:35:25.853Z,14.50
2022-08-20T00:37:54.611Z,14.40
2022-08-20T00:40:26.305Z,14.70
2022-08-20T00:42:57.422Z,14.07
2022-08-20T00:45:26.690Z,14.87
2022-08-20T00:47:57.298Z,14.87
2022-08-20T00:50:32.999Z,14.47
2022-08-20T00:53:00.527Z,15.93
2022-08-20T00:55:31.391Z,15.03
2022-08-20T00:58:01.698Z,15.70
2022-08-20T01:00:37.975Z,14.37
2022-08-20T01:03:09.646Z,15.47
2022-08-20T01:05:37.602Z,15.37
2022-08-20T01:08:04.654Z,16.20
2022-08-20T01:10:34.834Z,15.23
2022-08-20T01:13:03.822Z,16.13
2022-08-20T01:15:31.759Z,15.13
2022-08-20T01:18:00.192Z,16.30
2022-08-20T01:20:29.077Z,16.40
2022-08-20T01:23:29.852Z,15.87
2022-08-20T01:26:05.921Z,15.33
2022-08-20T01:28:38.552Z,15.10
2022-08-20T01:31:06.824Z,14.47
2022-08-20T01:33:33.869Z,15.40
2022-08-20T01:36:00.776Z,14.83
2022-08-20T01:38:29.094Z,14.40
2022-08-20T01:41:14.880Z,13.67
2022-08-20T01:43:41.821Z,14.37
2022-08-20T01:46:10.109Z,14.30
2022-08-20T01:48:38.774Z,13.27
2022-08-20T01:51:08.635Z,13.00
2022-08-20T01:53:37.863Z,12.93
2022-08-20T01:56:06.760Z,12.60
2022-08-20T01:58:34.133Z,13.47
2022-08-20T02:01:00.985Z,14.37
2022-08-20T02:03:27.865Z,14.43
2022-08-20T02:05:54.660Z,14.17
2022-08-20T02:08:21.889Z,14.57
2022-08-20T02:10:48.969Z,14.63
2022-08-20T02:13:16.336Z,15.07
2022-08-20T02:15:43.316Z,14.33
2022-08-20T02:18:12.482Z,14.37
2022-08-20T02:20:39.841Z,15.43
2022-08-20T02:23:07.542Z,14.27
2022-08-20T02:25:35.550Z,15.63
2022-08-20T02:28:04.434Z,15.00
2022-08-20T02:30:33.968Z,13.43
2022-08-20T02:33:02.586Z,13.60
2022-08-20T02:35:30.295Z,14.30
2022-08-20T02:37:58.262Z,14.47
2022-08-20T02:40:30.145Z,14.03
2022-08-20T02:42:58.881Z,14.23
2022-08-20T02:45:26.368Z,13.33
2022-08-20T02:47:54.103Z,14.23
2022-08-20T02:50:22.227Z,13.43
2022-08-20T02:52:51.692Z,14.20
2022-08-20T02:55:25.134Z,14.90
2022-08-20T02:57:55.107Z,13.53
2022-08-20T03:00:26.247Z,13.87
2022-08-20T03:02:52.988Z,13.73
2022-08-20T03:05:20.092Z,13.80
2022-08-20T03:07:48.307Z,14.27
2022-08-20T03:10:15.406Z,14.13
2022-08-20T03:12:42.268Z,14.67
2022-08-20T03:15:17.411Z,14.60
2022-08-20T03:17:45.099Z,14.00
2022-08-20T03:20:12.710Z,15.17
2022-08-20T03:22:40.055Z,14.03
2022-08-20T03:25:07.482Z,13.90
2022-08-20T03:27:36.387Z,14.23
2022-08-20T03:30:08.542Z,14.93
2022-08-20T03:32:35.342Z,14.77
2022-08-20T03:35:02.121Z,15.33
2022-08-20T03:37:31.595Z,15.33
2022-08-20T03:39:58.640Z,16.30
2022-08-20T03:42:25.853Z,16.40
2022-08-20T03:44:58.958Z,16.07
2022-08-20T03:47:26.830Z,16.43
2022-08-20T03:49:58.366Z,16.37
2022-08-20T03:52:25.280Z,17.10
2022-08-20T03:54:52.117Z,16.83
2022-08-20T03:57:18.856Z,19.03
2022-08-20T03:59:45.781Z,15.90
2022-08-20T04:02:16.716Z,16.20
2022-08-20T04:04:43.736Z,17.37
2022-08-20T04:07:14.795Z,16.40
2022-08-20T04:09:43.662Z,17.33
2022-08-20T04:12:12.927Z,17.73
2022-08-20T04:14:40.210Z,17.50
2022-08-20T04:17:09.852Z,16.17
2022-08-20T04:19:37.355Z,17.57
2022-08-20T04:22:04.633Z,17.27
2022-08-20T04:24:32.638Z,16.43
2022-08-20T04:27:02.242Z,16.43
2022-08-20T04:29:32.407Z,16.83
2022-08-20T04:32:00.635Z,15.30
2022-08-20T04:34:29.684Z,16.80
2022-08-20T04:36:56.728Z,17.30
2022-08-20T04:39:23.767Z,19.00
2022-08-20T04:41:50.626Z,19.20
2022-08-20T04:44:17.495Z,18.63
2022-08-20T04:46:44.271Z,19.43
2022-08-20T04:49:11.076Z,19.47
2022-08-20T04:51:37.932Z,21.77
2022-08-20T04:54:05.119Z,23.37
2022-08-20T04:56:37.795Z,19.87
2022-08-20T04:59:05.294Z,22.60
2022-08-20T05:01:33.224Z,20.57
2022-08-20T05:04:00.362Z,19.60
2022-08-20T05:06:29.707Z,18.23
2022-08-20T05:08:58.621Z,18.93
2022-08-20T05:11:34.973Z,18.03
2022-08-20T05:14:08.589Z,18.83
2022-08-20T05:16:40.385Z,17.83
2022-08-20T05:19:09.064Z,17.37
2022-08-20T05:21:36.115Z,17.43
2022-08-20T05:24:03.085Z,18.63
2022-08-20T05:26:29.912Z,18.67
2022-08-20T05:28:59.024Z,18.07
2022-08-20T05:31:32.357Z,17.47
2022-08-20T05:34:09.248Z,18.80
2022-08-20T05:36:36.982Z,18.07
2022-08-20T05:39:03.959Z,19.57
2022-08-20T05:41:30.783Z,20.50
2022-08-20T05:44:01.289Z,19.90
2022-08-20T05:46:29.014Z,19.50
2022-08-20T05:48:56.162Z,19.83
2022-08-20T05:51:27.512Z,20.50
2022-08-20T05:53:54.417Z,19.30
2022-08-20T05:56:27.029Z,20.50
2022-08-20T05:58:54.168Z,20.17
2022-08-20T06:01:21.077Z,19.90
2022-08-20T06:04:07.582Z,18.57
2022-08-20T06:06:45.951Z,20.37
2022-08-20T06:09:15.067Z,20.87
2022-08-20T06:11:41.888Z,20.77
2022-08-20T06:14:09.710Z,21.90
2022-08-20T06:16:37.438Z,20.97
2022-08-20T06:19:05.025Z,21.70
2022-08-20T06:21:32.227Z,21.93
2022-08-20T06:24:02.418Z,21.97
2022-08-20T06:26:30.892Z,21.23
2022-08-20T06:28:58.645Z,22.37
2022-08-20T06:31:25.893Z,19.70
2022-08-20T06:33:52.735Z,20.60
2022-08-20T06:36:19.469Z,21.63
2022-08-20T06:38:46.632Z,20.73
2022-08-20T06:41:14.071Z,19.60
2022-08-20T06:43:40.989Z,19.47
2022-08-20T06:46:08.184Z,20.40
2022-08-20T06:48:35.047Z,19.80
2022-08-20T06:51:01.903Z,21.30
2022-08-20T06:53:29.164Z,18.77
2022-08-20T06:55:57.965Z,17.47
2022-08-20T06:58:37.537Z,17.63
2022-08-20T07:01:09.725Z,17.30
2022-08-20T07:03:42.209Z,16.53
2022-08-20T07:06:22.126Z,16.50
2022-08-20T07:08:49.271Z,16.53
2022-08-20T07:11:16.137Z,15.60
2022-08-20T07:13:43.189Z,15.73
2022-08-20T07:16:09.992Z,16.83
2022-08-20T07:18:36.888Z,17.17
2022-08-20T07:21:03.789Z,16.87
2022-08-20T07:23:31.670Z,16.07
2022-08-20T07:25:58.693Z,15.70
2022-08-20T07:28:31.822Z,15.30
2022-08-20T07:31:17.434Z,15.87
2022-08-20T07:33:47.468Z,14.40
2022-08-20T07:36:17.811Z,15.23
2022-08-20T07:38:50.806Z,16.73
2022-08-20T07:41:18.728Z,15.07
2022-08-20T07:43:46.237Z,14.63
2022-08-20T07:46:17.757Z,14.80
2022-08-20T07:48:49.831Z,15.23
2022-08-20T07:51:18.146Z,14.63
2022-08-20T07:53:46.256Z,16.70
2022-08-20T07:56:14.887Z,16.10
2022-08-20T07:58:43.179Z,14.83
2022-08-20T08:01:11.379Z,15.17
2022-08-20T08:03:48.955Z,15.33
2022-08-20T08:06:28.446Z,14.57
2022-08-20T08:09:01.526Z,14.73
2022-08-20T08:11:28.371Z,15.13
2022-08-20T08:13:55.271Z,14.37
2022-08-20T08:16:22.263Z,12.83
2022-08-20T08:18:52.047Z,12.43
2022-08-20T08:21:19.346Z,12.80
2022-08-20T08:23:46.191Z,12.33
2022-08-20T08:26:16.325Z,13.23
2022-08-20T08:28:46.146Z,12.43
2022-08-20T08:31:13.631Z,12.00
2022-08-20T08:33:40.762Z,13.13
2022-08-20T08:36:10.200Z,13.80
2022-08-20T08:38:38.192Z,13.00
2022-08-20T08:41:14.021Z,12.90
2022-08-20T08:43:41.437Z,12.37
2022-08-20T08:46:10.133Z,12.77
2022-08-20T08:48:38.314Z,13.50
2022-08-20T08:51:12.435Z,14.10
2022-08-20T08:53:42.237Z,14.03
2022-08-20T08:56:10.400Z,12.80
2022-08-20T08:58:37.200Z,12.93
2022-08-20T09:01:54.478Z,14.37
2022-08-20T09:04:05.389Z,14.67
2022-08-20T09:06:32.575Z,14.00
2022-08-20T09:09:01.560Z,14.20
2022-08-20T09:11:29.177Z,12.83
2022-08-20T09:13:56.703Z,14.00
2022-08-20T09:16:24.326Z,13.33
2022-08-20T09:18:52.780Z,14.17
2022-08-20T09:21:19.832Z,13.97
2022-08-20T09:23:46.572Z,13.80
2022-08-20T09:26:13.720Z,13.30
2022-08-20T09:28:40.620Z,12.73
2022-08-20T09:31:07.414Z,12.93
2022-08-20T09:33:34.504Z,13.43
2022-08-20T09:36:01.368Z,11.73
2022-08-20T09:38:28.254Z,13.33
2022-08-20T09:40:55.060Z,12.67
2022-08-20T09:43:22.061Z,13.73
2022-08-20T09:45:48.838Z,14.80
2022-08-20T09:48:15.673Z,13.53
2022-08-20T09:50:45.857Z,13.97
2022-08-20T09:53:13.432Z,11.80
2022-08-20T09:55:41.439Z,14.03
2022-08-20T09:58:14.220Z,12.50
2022-08-20T10:00:41.003Z,11.67
2022-08-20T10:03:07.747Z,12.13
2022-08-20T10:05:34.576Z,11.30
2022-08-20T10:08:04.467Z,10.97
2022-08-20T10:10:31.328Z,12.13
2022-08-20T10:12:58.176Z,11.33
2022-08-20T10:15:25.282Z,11.00
2022-08-20T10:17:52.134Z,11.70
2022-08-20T10:20:19.608Z,12.03
2022-08-20T10:22:46.422Z,12.13
2022-08-20T10:25:13.550Z,12.20
2022-08-20T10:27:40.387Z,13.03
2022-08-20T10:30:07.770Z,12.43
2022-08-20T10:32:35.004Z,14.23
2022-08-20T10:35:02.133Z,12.30
2022-08-20T10:37:29.134Z,11.83
2022-08-20T10:39:56.184Z,13.00
2022-08-20T10:42:23.342Z,12.70
2022-08-20T10:44:50.221Z,12.90
2022-08-20T10:47:19.156Z,13.40
2022-08-20T10:49:46.126Z,13.33
2022-08-20T10:52:13.128Z,13.00
2022-08-20T10:54:42.924Z,13.37
2022-08-20T10:57:13.932Z,12.27
2022-08-20T10:59:42.336Z,12.90
2022-08-20T11:02:09.327Z,13.73
2022-08-20T11:04:36.356Z,12.43
2022-08-20T11:07:49.777Z,12.37
2022-08-20T11:10:13.607Z,14.07
2022-08-20T11:12:41.023Z,12.60
2022-08-20T11:15:10.563Z,13.63
2022-08-20T11:17:39.837Z,13.10
2022-08-20T11:20:07.867Z,12.43
2022-08-20T11:22:35.110Z,14.20
2022-08-20T11:25:02.210Z,13.33
2022-08-20T11:27:31.126Z,13.80
2022-08-20T11:29:58.211Z,14.43
2022-08-20T11:32:25.145Z,13.77
2022-08-20T11:34:52.284Z,14.33
2022-08-20T11:37:20.295Z,13.93
2022-08-20T11:39:47.195Z,13.60
2022-08-20T11:42:14.006Z,12.80
2022-08-20T11:44:40.808Z,12.87
2022-08-20T11:47:08.127Z,12.27
2022-08-20T11:49:36.183Z,13.77
2022-08-20T11:52:04.031Z,13.57
2022-08-20T11:54:32.490Z,12.63
2022-08-20T11:56:59.645Z,11.00
2022-08-20T11:59:27.529Z,12.32
2022-08-20T12:02:02.730Z,12.38
2022-08-20T12:04:33.534Z,13.80
2022-08-20T12:07:09.285Z,14.30
2022-08-20T12:09:36.173Z,14.32
2022-08-20T12:12:08.793Z,14.23
2022-08-20T12:14:36.994Z,14.17
2022-08-20T12:17:33.238Z,14.07
2022-08-20T12:20:01.242Z,14.63
2022-08-20T12:22:28.230Z,14.43
2022-08-20T12:24:55.052Z,14.83
2022-08-20T12:27:26.814Z,15.40
2022-08-20T12:29:55.404Z,15.73
2022-08-20T12:32:23.303Z,15.63
2022-08-20T12:34:50.584Z,14.80
2022-08-20T12:37:18.761Z,14.67
2022-08-20T12:39:48.702Z,15.13
2022-08-20T12:42:16.385Z,14.53
2022-08-20T12:44:43.534Z,14.77
2022-08-20T12:47:18.733Z,15.50
2022-08-20T12:49:47.944Z,16.10
2022-08-20T12:52:15.551Z,12.07
2022-08-20T12:54:42.444Z,8.00
2022-08-20T12:57:36.455Z,7.53
2022-08-20T13:00:08.600Z,5.83
2022-08-20T13:02:35.866Z,5.77
2022-08-20T13:05:05.227Z,5.07
2022-08-20T13:07:32.619Z,5.50
2022-08-20T13:10:00.802Z,5.77
2022-08-20T13:12:28.549Z,5.83
2022-08-20T13:14:55.403Z,7.20
2022-08-20T13:17:38.116Z,8.03
2022-08-20T13:20:05.797Z,10.73
2022-08-20T13:22:32.639Z,10.67
2022-08-20T13:24:59.470Z,11.97
2022-08-20T13:27:26.246Z,11.37
2022-08-20T13:29:58.410Z,9.40
2022-08-20T13:32:26.199Z,8.80
2022-08-20T13:34:53.081Z,8.07
2022-08-20T13:37:25.082Z,7.33
2022-08-20T13:39:53.427Z,7.30
2022-08-20T13:42:20.682Z,7.60
2022-08-20T13:44:48.007Z,7.70
2022-08-20T13:47:20.793Z,7.27
2022-08-20T13:49:48.311Z,6.20
2022-08-20T13:52:16.956Z,5.10
2022-08-20T13:54:43.920Z,4.50
2022-08-20T13:57:13.240Z,6.10
2022-08-20T13:59:41.332Z,4.70
2022-08-20T14:02:08.774Z,4.83
2022-08-20T14:04:35.865Z,4.30
2022-08-20T14:07:32.519Z,4.80
2022-08-20T14:10:11.361Z,5.83
2022-08-20T14:12:38.222Z,6.50
2022-08-20T14:15:05.480Z,7.10
2022-08-20T14:17:36.698Z,8.47
2022-08-20T14:20:06.068Z,8.30
2022-08-20T14:22:33.627Z,9.53
2022-08-20T14:25:03.496Z,8.90
2022-08-20T14:27:31.793Z,9.53
2022-08-20T14:29:59.038Z,9.37
2022-08-20T14:32:26.240Z,8.80
2022-08-20T14:34:54.532Z,10.67
2022-08-20T14:37:23.621Z,12.07
2022-08-20T14:39:52.074Z,9.77
2022-08-20T14:42:20.269Z,8.40
2022-08-20T14:44:47.134Z,7.87
2022-08-20T14:47:23.384Z,6.93
2022-08-20T14:49:51.355Z,7.13
2022-08-20T14:52:19.435Z,6.00
2022-08-20T14:54:47.006Z,5.37
2022-08-20T14:57:15.186Z,5.57
2022-08-20T14:59:42.425Z,5.07
2022-08-20T15:02:10.066Z,4.87
2022-08-20T15:04:39.320Z,4.50
2022-08-20T15:07:13.971Z,5.23
2022-08-20T15:09:43.303Z,4.10
2022-08-20T15:12:10.320Z,4.67
2022-08-20T15:14:39.158Z,4.70
2022-08-20T15:17:06.257Z,4.50
2022-08-20T15:19:33.224Z,4.33
2022-08-20T15:22:00.423Z,4.37
2022-08-20T15:24:27.374Z,4.83
2022-08-20T15:26:54.212Z,4.70
2022-08-20T15:29:23.331Z,4.63
2022-08-20T15:31:50.959Z,4.87
2022-08-20T15:34:18.405Z,5.30
2022-08-20T15:36:45.813Z,4.93
2022-08-20T15:39:12.650Z,4.57
2022-08-20T15:41:39.463Z,4.53
2022-08-20T15:44:07.079Z,5.40
2022-08-20T15:46:36.110Z,5.10
2022-08-20T15:49:10.103Z,5.13
2022-08-20T15:51:47.620Z,5.10
2022-08-20T15:54:19.036Z,4.63
2022-08-20T15:57:01.356Z,4.60
2022-08-20T15:59:46.566Z,5.20
2022-08-20T16:02:13.320Z,5.47
2022-08-20T16:04:47.496Z,4.73
2022-08-20T16:07:17.217Z,4.80
2022-08-20T16:09:54.068Z,4.80
2022-08-20T16:12:40.719Z,4.30
2022-08-20T16:15:09.476Z,4.90
2022-08-20T16:17:42.547Z,4.63
2022-08-20T16:20:18.705Z,5.17
2022-08-20T16:22:46.399Z,3.50
2022-08-20T16:25:14.120Z,3.47
2022-08-20T16:27:58.304Z,3.50
2022-08-20T16:30:31.377Z,5.60
2022-08-20T16:33:34.843Z,2.10
2022-08-20T16:36:05.344Z,2.20
2022-08-20T16:38:54.577Z,3.07
2022-08-20T16:41:25.798Z,1.83
2022-08-20T16:43:59.656Z,2.23
2022-08-20T16:46:36.116Z,5.23
2022-08-20T16:49:13.706Z,6.80
2022-08-20T16:51:50.985Z,2.53
2022-08-20T16:54:29.415Z,2.93
2022-08-20T16:57:00.283Z,7.80
2022-08-20T16:59:28.124Z,2.93
2022-08-20T17:02:07.203Z,2.53
2022-08-20T17:04:44.600Z,2.37
2022-08-20T17:07:29.889Z,2.47
2022-08-20T17:10:11.615Z,1.87
2022-08-20T17:12:38.462Z,7.33
2022-08-20T17:15:06.028Z,6.97
2022-08-20T17:17:35.611Z,5.00
2022-08-20T17:20:05.486Z,3.27
2022-08-20T17:22:39.738Z,5.37
2022-08-20T17:25:19.760Z,5.93
2022-08-20T17:27:48.061Z,4.77
2022-08-20T17:30:20.482Z,7.27
2022-08-20T17:32:57.406Z,5.90
2022-08-20T17:35:48.515Z,5.37
2022-08-20T17:38:36.631Z,6.40
2022-08-20T17:41:07.830Z,5.50
2022-08-20T17:43:34.772Z,4.57
2022-08-20T17:46:13.769Z,5.23
2022-08-20T17:48:44.785Z,6.57
2022-08-20T17:51:19.835Z,4.40
2022-08-20T17:53:49.844Z,4.23
2022-08-20T17:56:21.532Z,4.40
2022-08-20T17:58:54.336Z,4.27
2022-08-20T18:01:22.221Z,4.23
2022-08-20T18:03:50.726Z,4.27
2022-08-20T18:06:30.501Z,3.97
2022-08-20T18:09:27.351Z,3.97
2022-08-20T18:12:07.716Z,3.90
2022-08-20T18:14:54.595Z,4.40
2022-08-20T18:17:33.828Z,3.73
2022-08-20T18:20:19.448Z,3.90
2022-08-20T18:22:58.328Z,3.97
2022-08-20T18:25:29.114Z,7.77
2022-08-20T18:27:58.008Z,5.53
2022-08-20T18:30:26.078Z,5.00
2022-08-20T18:33:19.147Z,5.97
2022-08-20T18:35:46.428Z,5.20
2022-08-20T18:38:31.922Z,5.90
2022-08-20T18:41:07.705Z,5.30
2022-08-20T18:43:35.715Z,4.70
2022-08-20T18:46:13.588Z,5.00
2022-08-20T18:48:50.170Z,5.33
2022-08-20T18:51:19.046Z,6.07
2022-08-20T18:53:51.916Z,6.23
2022-08-20T18:56:29.362Z,6.60
2022-08-20T18:59:19.938Z,7.13
2022-08-20T19:01:47.962Z,7.47
2022-08-20T19:04:21.068Z,5.63
2022-08-20T19:06:54.316Z,6.30
2022-08-20T19:09:59.275Z,6.57
2022-08-20T19:12:31.629Z,6.33
2022-08-20T19:14:58.568Z,6.53
2022-08-20T19:17:32.589Z,6.20
2022-08-20T19:20:01.494Z,5.90
2022-08-20T19:22:28.630Z,6.70
2022-08-20T19:24:58.436Z,6.70
2022-08-20T19:27:26.919Z,5.47
2022-08-20T19:29:56.752Z,5.70
2022-08-20T19:32:25.844Z,5.30
2022-08-20T19:34:56.759Z,5.40
2022-08-20T19:37:34.932Z,4.70
2022-08-20T19:40:18.386Z,4.90
2022-08-20T19:42:46.319Z,6.33
2022-08-20T19:45:30.693Z,6.07
2022-08-20T19:48:06.759Z,5.97
2022-08-20T19:50:41.482Z,6.10
2022-08-20T19:53:26.431Z,6.17
2022-08-20T19:56:17.719Z,5.77
2022-08-20T19:58:44.981Z,6.13
2022-08-20T20:01:19.776Z,6.53
2022-08-20T20:04:00.071Z,6.33
2022-08-20T20:06:27.780Z,4.60
2022-08-20T20:08:59.611Z,4.57
2022-08-20T20:11:37.033Z,5.20
2022-08-20T20:14:05.860Z,4.43
2022-08-20T20:16:33.677Z,4.53
2022-08-20T20:19:24.909Z,4.57
2022-08-20T20:21:49.565Z,4.70
2022-08-20T20:24:23.577Z,4.97
2022-08-20T20:26:50.896Z,5.70
2022-08-20T20:29:43.796Z,5.37
2022-08-20T20:32:15.129Z,4.90
2022-08-20T20:34:55.686Z,5.57
2022-08-20T20:37:46.623Z,5.23
2022-08-20T20:40:21.508Z,5.23
2022-08-20T20:43:18.038Z,4.90
2022-08-20T20:45:46.176Z,5.00
2022-08-20T20:48:24.254Z,5.27
2022-08-20T20:50:51.947Z,4.93
2022-08-20T20:53:49.424Z,5.40
2022-08-20T20:56:31.631Z,5.47
2022-08-20T20:59:02.523Z,6.03
2022-08-20T21:01:48.050Z,5.53
2022-08-20T21:04:17.064Z,5.63
2022-08-20T21:06:44.046Z,6.03
2022-08-20T21:09:10.993Z,5.30
2022-08-20T21:11:37.846Z,5.43
2022-08-20T21:14:04.632Z,5.40
2022-08-20T21:16:31.548Z,4.63
2022-08-20T21:18:58.342Z,4.47
2022-08-20T21:21:25.230Z,4.13
2022-08-20T21:23:52.100Z,4.00
2022-08-20T21:26:18.968Z,3.70
2022-08-20T21:28:45.907Z,4.77
2022-08-20T21:31:13.143Z,4.07
2022-08-20T21:33:39.982Z,4.60
2022-08-20T21:36:06.937Z,3.83
2022-08-20T21:38:33.861Z,3.60
2022-08-20T21:41:00.762Z,3.83
2022-08-20T21:43:32.741Z,3.90
2022-08-20T21:46:01.366Z,3.60
2022-08-20T21:48:29.335Z,3.53
2022-08-20T21:50:56.152Z,3.90
2022-08-20T21:53:22.963Z,3.77
2022-08-20T21:55:49.870Z,4.00
2022-08-20T21:58:17.089Z,4.13
2022-08-20T22:00:52.636Z,4.07
2022-08-20T22:03:20.752Z,4.73
2022-08-20T22:05:49.162Z,3.93
2022-08-20T22:08:15.944Z,4.63
2022-08-20T22:10:42.881Z,4.43
2022-08-20T22:13:09.680Z,5.23
2022-08-20T22:15:38.107Z,6.97
2022-08-20T22:18:05.092Z,6.93
2022-08-20T22:20:31.904Z,6.83
2022-08-20T22:23:03.090Z,6.50
2022-08-20T22:25:30.071Z,6.47
2022-08-20T22:27:56.811Z,6.50
2022-08-20T22:30:23.893Z,6.27
2022-08-20T22:33:01.843Z,6.17
2022-08-20T22:35:29.772Z,6.77
2022-08-20T22:37:56.857Z,6.50
2022-08-20T22:40:23.736Z,6.80
2022-08-20T22:42:50.571Z,7.40
2022-08-20T22:45:17.963Z,6.50
2022-08-20T22:47:44.954Z,6.53
2022-08-20T22:50:12.830Z,7.07
2022-08-20T22:52:40.181Z,7.53
2022-08-20T22:55:07.248Z,7.70
2022-08-20T22:57:36.854Z,7.80
2022-08-20T23:00:06.119Z,7.00
2022-08-20T23:02:33.108Z,7.10
2022-08-20T23:05:00.177Z,7.53
2022-08-20T23:07:27.058Z,9.90
2022-08-20T23:09:53.846Z,7.73
2022-08-20T23:12:20.745Z,7.30
2022-08-20T23:14:47.650Z,8.03
2022-08-20T23:17:17.893Z,8.03
2022-08-20T23:19:45.576Z,8.10
2022-08-20T23:22:12.622Z,7.67
2022-08-20T23:24:39.668Z,7.70
2022-08-20T23:27:07.741Z,8.67
2022-08-20T23:29:35.289Z,9.13
2022-08-20T23:32:02.239Z,9.37
2022-08-20T23:34:29.132Z,7.77
2022-08-20T23:36:56.755Z,9.57
2022-08-20T23:39:24.131Z,8.00
2022-08-20T23:41:51.046Z,7.40
2022-08-20T23:44:25.127Z,8.27
2022-08-20T23:46:58.164Z,8.23
2022-08-20T23:49:26.156Z,7.93
2022-08-20T23:51:52.995Z,7.30
2022-08-20T23:54:19.886Z,8.17
2022-08-20T23:56:46.984Z,11.30
2022-08-20T23:59:13.759Z,8.70
